createdAt,value
2022-09-21T00:02:15.538Z,74.37
2022-09-21T00:10:40.591Z,74.42
2022-09-21T00:19:04.741Z,74.21
2022-09-21T00:27:30.219Z,74.24
2022-09-21T00:35:53.902Z,74.27
2022-09-21T00:44:16.699Z,74.35
2022-09-21T00:52:52.209Z,74.36
2022-09-21T01:01:18.805Z,74.56
2022-09-21T01:09:43.935Z,74.60
2022-09-21T01:18:15.821Z,74.63
2022-09-21T01:26:57.849Z,74.83
2022-09-21T01:35:32.447Z,74.76
2022-09-21T01:44:01.744Z,74.81
2022-09-21T01:52:52.926Z,74.92
2022-09-21T02:01:20.306Z,75.10
2022-09-21T02:09:43.346Z,74.93
2022-09-21T02:18:14.214Z,74.91
2022-09-21T02:26:49.633Z,75.08
2022-09-21T02:35:22.413Z,74.83
2022-09-21T02:44:04.362Z,75.19
2022-09-21T02:52:30.137Z,75.31
2022-09-21T03:00:56.767Z,75.15
2022-09-21T03:09:25.053Z,75.09
2022-09-21T03:17:47.800Z,75.17
2022-09-21T03:26:10.606Z,75.42
2022-09-21T03:34:34.353Z,75.50
2022-09-21T03:42:57.262Z,75.55
2022-09-21T03:51:20.707Z,75.47
2022-09-21T03:59:44.031Z,75.73
2022-09-21T04:08:07.762Z,75.51
2022-09-21T04:16:31.718Z,75.73
2022-09-21T04:24:54.497Z,75.70
2022-09-21T04:33:17.311Z,75.72
2022-09-21T04:41:40.141Z,75.62
2022-09-21T04:50:04.203Z,75.85
2022-09-21T04:58:27.981Z,75.89
2022-09-21T05:06:50.772Z,75.82
2022-09-21T05:15:13.673Z,75.95
2022-09-21T05:23:36.514Z,76.10
2022-09-21T05:32:16.602Z,75.97
2022-09-21T05:40:39.834Z,76.07
2022-09-21T05:49:05.852Z,76.04
2022-09-21T05:57:55.594Z,76.27
2022-09-21T06:06:19.604Z,76.28
2022-09-21T06:14:42.372Z,76.23
2022-09-21T06:23:08.445Z,76.44
2022-09-21T06:31:31.375Z,76.22
2022-09-21T06:39:54.207Z,76.28
2022-09-21T06:48:17.056Z,76.66
2022-09-21T06:56:42.805Z,76.49
2022-09-21T07:05:06.091Z,76.50
2022-09-21T07:13:29.326Z,76.54
2022-09-21T07:21:56.281Z,76.93
2022-09-21T07:30:19.050Z,76.78
2022-09-21T07:38:44.410Z,76.86
2022-09-21T07:47:08.347Z,76.90
2022-09-21T07:55:31.944Z,76.81
2022-09-21T08:03:57.947Z,76.96
2022-09-21T08:12:20.795Z,77.15
2022-09-21T08:20:44.349Z,76.99
2022-09-21T08:29:07.823Z,76.98
2022-09-21T08:37:32.162Z,76.99
2022-09-21T08:45:57.582Z,77.04
2022-09-21T08:54:53.897Z,76.98
2022-09-21T09:03:22.901Z,77.32
2022-09-21T09:12:11.015Z,77.15
2022-09-21T09:20:43.447Z,77.21
2022-09-21T09:29:21.089Z,77.25
2022-09-21T09:37:48.618Z,77.28
2022-09-21T09:46:20.696Z,77.16
2022-09-21T09:54:44.291Z,77.20
2022-09-21T10:03:18.490Z,77.26
2022-09-21T10:11:41.306Z,77.01
2022-09-21T10:20:08.063Z,77.12
2022-09-21T10:28:32.063Z,77.27
2022-09-21T10:36:57.594Z,77.10
2022-09-21T10:45:27.958Z,77.02
2022-09-21T10:53:53.846Z,77.28
2022-09-21T11:02:32.082Z,77.25
2022-09-21T11:11:10.259Z,77.18
2022-09-21T11:19:48.644Z,77.13
2022-09-21T11:28:34.495Z,77.04
2022-09-21T11:37:28.260Z,77.34
2022-09-21T11:46:23.357Z,77.18
2022-09-21T11:55:18.982Z,76.86
2022-09-21T12:03:53.450Z,77.06
2022-09-21T12:12:25.880Z,76.98
2022-09-21T12:21:02.353Z,77.05
2022-09-21T12:29:38.098Z,77.03
2022-09-21T12:38:23.589Z,77.16
2022-09-21T12:47:09.774Z,76.90
2022-09-21T12:56:01.393Z,76.99
2022-09-21T13:04:38.713Z,76.91
2022-09-21T13:13:08.389Z,76.87
2022-09-21T13:21:34.844Z,76.73
2022-09-21T13:30:32.668Z,76.71
2022-09-21T13:39:17.506Z,76.58
2022-09-21T13:47:46.172Z,76.66
2022-09-21T13:56:18.811Z,76.42
2022-09-21T14:04:49.111Z,76.58
2022-09-21T14:13:24.556Z,76.32
2022-09-21T14:22:06.413Z,76.32
2022-09-21T14:30:35.085Z,76.57
2022-09-21T14:39:03.373Z,76.29
2022-09-21T14:47:41.204Z,76.04
2022-09-21T14:56:04.088Z,75.99
2022-09-21T15:05:12.576Z,76.08
2022-09-21T15:14:16.806Z,75.85
2022-09-21T15:22:46.587Z,75.96
2022-09-21T15:31:09.689Z,75.71
2022-09-21T15:39:32.666Z,75.76
2022-09-21T15:47:58.057Z,75.63
2022-09-21T15:56:28.843Z,75.47
2022-09-21T16:04:53.027Z,75.39
2022-09-21T16:13:44.392Z,75.35
2022-09-21T16:22:15.271Z,75.18
2022-09-21T16:30:47.366Z,75.25
2022-09-21T16:39:15.189Z,75.08
2022-09-21T16:47:39.630Z,74.70
2022-09-21T16:56:03.532Z,74.92
2022-09-21T17:04:29.952Z,74.76
2022-09-21T17:12:58.273Z,74.63
2022-09-21T17:21:21.522Z,74.66
2022-09-21T17:29:49.668Z,74.79
2022-09-21T17:38:14.723Z,74.62
2022-09-21T17:47:00.153Z,74.43
2022-09-21T17:55:23.932Z,74.63
2022-09-21T18:03:47.538Z,74.40
2022-09-21T18:12:38.112Z,74.52
2022-09-21T18:21:43.941Z,74.38
2022-09-21T18:30:08.633Z,74.52
2022-09-21T18:38:50.433Z,74.45
2022-09-21T18:47:13.130Z,74.42
2022-09-21T18:55:37.455Z,74.49
2022-09-21T19:04:01.358Z,74.49
2022-09-21T19:12:46.052Z,74.41
2022-09-21T19:21:29.567Z,74.35
2022-09-21T19:30:04.858Z,74.35
2022-09-21T19:38:30.960Z,74.35
2022-09-21T19:47:43.168Z,74.36
2022-09-21T19:56:31.405Z,74.50
2022-09-21T20:05:05.148Z,74.26
2022-09-21T20:13:32.071Z,74.34
2022-09-21T20:22:19.867Z,74.16
2022-09-21T20:30:44.472Z,74.35
2022-09-21T20:39:07.428Z,74.30
2022-09-21T20:47:30.378Z,74.06
2022-09-21T20:55:56.070Z,74.16
2022-09-21T21:04:19.237Z,74.27
2022-09-21T21:12:43.210Z,74.48
2022-09-21T21:21:06.647Z,74.24
2022-09-21T21:29:30.721Z,74.22
2022-09-21T21:37:53.503Z,74.32
2022-09-21T21:46:16.476Z,74.36
2022-09-21T21:54:39.497Z,74.40
2022-09-21T22:03:02.941Z,74.34
2022-09-21T22:11:27.946Z,74.31
2022-09-21T22:19:51.477Z,74.35
2022-09-21T22:28:14.285Z,74.39
2022-09-21T22:36:37.668Z,74.51
2022-09-21T22:45:00.538Z,74.46
2022-09-21T22:53:26.033Z,74.58
2022-09-21T23:01:48.977Z,74.28
2022-09-21T23:10:12.673Z,74.26
2022-09-21T23:18:35.624Z,74.77
2022-09-21T23:26:58.454Z,74.21
2022-09-21T23:35:21.553Z,74.45
2022-09-21T23:43:46.042Z,74.70
2022-09-21T23:52:09.705Z,74.65
